createdAt,value
2018-11-12T00:00:17.000Z,77217.16
2018-11-12T00:02:44.676Z,77215.15
2018-11-12T00:05:11.523Z,77215.15
2018-11-12T00:07:38.376Z,77212.15
2018-11-12T00:10:05.593Z,77209.14
2018-11-12T00:12:32.420Z,77205.14
2018-11-12T00:14:59.273Z,77211.14
2018-11-12T00:17:26.107Z,77209.14
2018-11-12T00:19:52.953Z,77209.14
2018-11-12T00:22:20.644Z,77213.15
2018-11-12T00:24:48.383Z,77212.15
2018-11-12T00:27:16.160Z,77209.14
2018-11-12T00:29:44.562Z,77207.14
2018-11-12T00:32:12.192Z,77214.15
2018-11-12T00:34:39.966Z,77215.15
2018-11-12T00:37:07.891Z,77217.16
2018-11-12T00:39:35.727Z,77217.16
2018-11-12T00:42:03.384Z,77223.16
2018-11-12T00:44:31.018Z,77233.16
2018-11-12T00:46:59.606Z,77223.16
2018-11-12T00:49:26.492Z,77233.16
2018-11-12T00:51:54.225Z,77240.17
2018-11-12T00:54:22.067Z,77241.17
2018-11-12T00:56:49.776Z,77237.17
2018-11-12T00:59:17.630Z,77241.17
2018-11-12T01:01:46.152Z,77236.17
2018-11-12T01:04:14.233Z,77239.17
2018-11-12T01:06:41.738Z,77236.17
2018-11-12T01:09:10.728Z,77233.16
2018-11-12T01:11:37.573Z,77236.17
2018-11-12T01:14:05.379Z,77234.16
2018-11-12T01:16:33.021Z,77233.16
2018-11-12T01:19:00.847Z,77246.17
2018-11-12T01:21:28.517Z,77249.18
2018-11-12T01:23:55.339Z,77249.18
2018-11-12T01:26:22.964Z,77254.19
2018-11-12T01:28:50.710Z,77255.19
2018-11-12T01:31:18.511Z,77250.18
2018-11-12T01:33:45.336Z,77255.19
2018-11-12T01:36:12.230Z,77254.19
2018-11-12T01:38:40.026Z,77253.19
2018-11-12T01:41:07.861Z,77255.19
2018-11-12T01:43:35.614Z,77262.19
2018-11-12T01:46:02.462Z,77259.19
2018-11-12T01:48:30.279Z,77265.20
2018-11-12T01:50:57.170Z,77267.20
2018-11-12T01:53:24.822Z,77265.20
2018-11-12T01:55:52.434Z,77275.20
2018-11-12T01:58:20.146Z,77272.20
2018-11-12T02:00:46.973Z,77274.20
2018-11-12T02:03:15.908Z,77279.20
2018-11-12T02:05:42.834Z,77275.20
2018-11-12T02:08:10.597Z,77268.20
2018-11-12T02:10:38.433Z,77274.20
2018-11-12T02:13:06.183Z,77271.20
2018-11-12T02:15:33.003Z,77275.20
2018-11-12T02:17:59.833Z,77276.20
2018-11-12T02:20:26.678Z,77283.21
2018-11-12T02:22:53.541Z,77279.20
2018-11-12T02:25:20.555Z,77273.20
2018-11-12T02:27:47.407Z,77269.20
2018-11-12T02:30:17.076Z,77272.20
2018-11-12T02:32:44.918Z,77270.20
2018-11-12T02:35:12.735Z,77275.20
2018-11-12T02:37:40.143Z,77268.20
2018-11-12T02:40:09.248Z,77269.20
2018-11-12T02:42:37.085Z,77273.20
2018-11-12T02:45:05.151Z,77277.20
2018-11-12T02:47:32.932Z,77276.20
2018-11-12T02:50:00.635Z,77274.20
2018-11-12T02:52:28.615Z,77277.20
2018-11-12T02:54:56.418Z,77281.20
2018-11-12T02:57:23.397Z,77280.20
2018-11-12T02:59:51.153Z,77281.20
2018-11-12T03:02:18.926Z,77276.20
2018-11-12T03:04:46.619Z,77273.20
2018-11-12T03:07:15.312Z,77271.20
2018-11-12T03:09:43.739Z,77268.20
2018-11-12T03:12:10.613Z,77266.20
2018-11-12T03:14:38.355Z,77260.19
2018-11-12T03:17:05.279Z,77262.19
2018-11-12T03:19:32.978Z,77267.20
2018-11-12T03:22:00.711Z,77269.20
2018-11-12T03:24:27.594Z,77263.19
2018-11-12T03:26:54.515Z,77264.19
2018-11-12T03:29:21.405Z,77267.20
2018-11-12T03:31:52.098Z,77269.20
2018-11-12T03:34:19.767Z,77269.20
2018-11-12T03:36:47.589Z,77266.20
2018-11-12T03:39:15.242Z,77261.19
2018-11-12T03:41:43.539Z,77274.20
2018-11-12T03:44:11.214Z,77273.20
2018-11-12T03:46:39.003Z,77278.20
2018-11-12T03:49:06.809Z,77274.20
2018-11-12T03:51:33.666Z,77274.20
2018-11-12T03:54:00.548Z,77267.20
2018-11-12T03:56:27.418Z,77273.20
2018-11-12T03:58:55.075Z,77275.20
2018-11-12T04:01:26.574Z,77275.20
2018-11-12T04:03:54.237Z,77269.20
2018-11-12T04:06:21.096Z,77269.20
2018-11-12T04:08:47.984Z,77270.20
2018-11-12T04:11:14.780Z,77275.20
2018-11-12T04:13:42.433Z,77275.20
2018-11-12T04:16:09.263Z,77272.20
2018-11-12T04:18:36.948Z,77271.20
2018-11-12T04:21:05.173Z,77267.20
2018-11-12T04:23:32.809Z,77271.20
2018-11-12T04:26:00.479Z,77263.19
2018-11-12T04:28:28.061Z,77271.20
2018-11-12T04:30:54.932Z,77267.20
2018-11-12T04:33:21.757Z,77269.20
2018-11-12T04:35:49.517Z,77271.20
2018-11-12T04:38:17.218Z,77277.20
2018-11-12T04:40:45.108Z,77279.20
2018-11-12T04:43:13.523Z,77275.20
2018-11-12T04:45:41.425Z,77267.20
2018-11-12T04:48:08.176Z,77273.20
2018-11-12T04:50:35.823Z,77272.20
2018-11-12T04:53:02.699Z,77275.20
2018-11-12T04:55:30.401Z,77271.20
2018-11-12T04:57:57.230Z,77268.20
2018-11-12T05:00:26.526Z,77269.20
2018-11-12T05:02:54.231Z,77266.20
2018-11-12T05:05:23.283Z,77267.20
2018-11-12T05:07:50.972Z,77270.20
2018-11-12T05:10:19.870Z,77276.20
2018-11-12T05:12:48.020Z,77271.20
2018-11-12T05:15:16.102Z,77272.20
2018-11-12T05:17:44.731Z,77270.20
2018-11-12T05:20:13.818Z,77271.20
2018-11-12T05:22:40.983Z,77273.20
2018-11-12T05:25:08.188Z,77272.20
2018-11-12T05:27:35.085Z,77273.20
2018-11-12T05:30:01.991Z,77273.20
2018-11-12T05:32:28.929Z,77278.20
2018-11-12T05:34:56.770Z,77281.20
2018-11-12T05:37:23.592Z,77286.21
2018-11-12T05:39:50.426Z,77286.21
2018-11-12T05:42:17.339Z,77292.22
2018-11-12T05:44:45.208Z,77286.21
2018-11-12T05:47:13.904Z,77288.22
2018-11-12T05:49:40.736Z,77291.22
2018-11-12T05:52:07.561Z,77295.22
2018-11-12T05:54:34.408Z,77291.22
2018-11-12T05:57:01.277Z,77300.23
2018-11-12T05:59:28.120Z,77311.23
2018-11-12T06:01:54.943Z,77311.23
2018-11-12T06:04:21.774Z,77311.23
2018-11-12T06:06:48.691Z,77305.23
2018-11-12T06:09:15.615Z,77309.23
2018-11-12T06:11:42.428Z,77313.23
2018-11-12T06:14:09.222Z,77313.23
2018-11-12T06:16:36.181Z,77311.23
2018-11-12T06:19:03.972Z,77315.24
2018-11-12T06:21:30.898Z,77317.24
2018-11-12T06:23:57.773Z,77327.25
2018-11-12T06:26:24.717Z,77321.25
2018-11-12T06:28:52.354Z,77325.25
2018-11-12T06:31:20.307Z,77325.25
2018-11-12T06:33:48.216Z,77319.25
2018-11-12T06:36:16.242Z,77321.25
2018-11-12T06:38:45.130Z,77325.25
2018-11-12T06:41:11.958Z,77332.26
2018-11-12T06:43:39.710Z,77341.27
2018-11-12T06:46:07.527Z,77341.27
2018-11-12T06:48:34.347Z,77348.27
2018-11-12T06:51:01.197Z,77351.27
2018-11-12T06:53:28.178Z,77356.28
2018-11-12T06:55:55.230Z,77359.28
2018-11-12T06:58:23.029Z,77361.28
2018-11-12T07:00:49.924Z,77367.29
2018-11-12T07:03:17.638Z,77363.28
2018-11-12T07:05:45.319Z,77355.28
2018-11-12T07:08:12.176Z,77349.27
2018-11-12T07:10:39.529Z,77345.27
2018-11-12T07:13:06.775Z,77344.27
2018-11-12T07:15:33.625Z,77345.27
2018-11-12T07:18:01.535Z,77349.27
2018-11-12T07:20:28.916Z,77349.27
2018-11-12T07:22:56.809Z,77361.28
2018-11-12T07:25:25.328Z,77364.28
2018-11-12T07:27:52.230Z,77369.30
2018-11-12T07:30:21.416Z,77373.30
2018-11-12T07:32:49.095Z,77369.30
2018-11-12T07:35:16.823Z,77366.29
2018-11-12T07:37:47.053Z,77371.30
2018-11-12T07:40:14.573Z,77371.30
2018-11-12T07:42:42.571Z,77368.29
2018-11-12T07:45:11.877Z,77358.28
2018-11-12T07:47:39.062Z,77360.28
2018-11-12T07:50:07.876Z,77355.28
2018-11-12T07:52:34.761Z,77354.28
2018-11-12T07:55:02.623Z,77351.27
2018-11-12T07:57:30.549Z,77354.28
2018-11-12T07:59:58.332Z,77359.28
2018-11-12T08:02:30.652Z,77363.28
2018-11-12T08:04:58.514Z,77357.28
2018-11-12T08:07:26.428Z,77354.28
2018-11-12T08:09:53.277Z,77348.27
2018-11-12T08:12:20.963Z,77350.27
2018-11-12T08:14:48.769Z,77352.28
2018-11-12T08:17:16.649Z,77350.27
2018-11-12T08:19:45.327Z,77351.27
2018-11-12T08:22:13.777Z,77349.27
2018-11-12T08:24:41.736Z,77347.27
2018-11-12T08:27:08.644Z,77346.27
2018-11-12T08:29:36.087Z,77345.27
2018-11-12T08:32:05.265Z,77345.27
2018-11-12T08:34:32.168Z,77347.27
2018-11-12T08:37:00.059Z,77349.27
2018-11-12T08:39:27.031Z,77350.27
2018-11-12T08:41:54.780Z,77357.28
2018-11-12T08:44:22.551Z,77356.28
2018-11-12T08:46:50.279Z,77351.27
2018-11-12T08:49:17.215Z,77353.28
2018-11-12T08:51:44.895Z,77353.28
2018-11-12T08:54:11.755Z,77352.28
2018-11-12T08:56:39.456Z,77356.28
2018-11-12T08:59:07.623Z,77354.28
2018-11-12T09:01:34.488Z,77358.28
2018-11-12T09:04:02.414Z,77362.28
2018-11-12T09:06:30.270Z,77361.28
2018-11-12T09:08:58.223Z,77375.30
2018-11-12T09:11:26.025Z,77365.29
2018-11-12T09:13:54.374Z,77363.28
2018-11-12T09:16:21.229Z,77365.29
2018-11-12T09:18:49.043Z,77360.28
2018-11-12T09:21:17.298Z,77358.28
2018-11-12T09:23:45.061Z,77357.28
2018-11-12T09:26:13.778Z,77363.28
2018-11-12T09:28:41.427Z,77355.28
2018-11-12T09:31:10.231Z,77361.28
2018-11-12T09:33:35.945Z,77360.28
2018-11-12T09:36:03.696Z,77365.29
2018-11-12T09:38:31.643Z,77357.28
2018-11-12T09:40:59.438Z,77350.27
2018-11-12T09:43:27.181Z,77346.27
2018-11-12T09:45:54.546Z,77346.27
2018-11-12T09:48:22.348Z,77344.27
2018-11-12T09:50:50.046Z,77341.27
2018-11-12T09:53:17.896Z,77335.27
2018-11-12T09:55:46.358Z,77337.27
2018-11-12T09:58:13.963Z,77339.27
2018-11-12T10:00:42.128Z,77345.27
2018-11-12T10:03:09.548Z,77347.27
2018-11-12T10:05:38.239Z,77346.27
2018-11-12T10:08:08.030Z,77345.27
2018-11-12T10:11:04.436Z,77346.27
2018-11-12T10:13:30.965Z,77347.27
2018-11-12T10:15:59.993Z,77342.27
2018-11-12T10:18:23.873Z,77334.26
2018-11-12T10:20:50.767Z,77332.26
2018-11-12T10:23:19.085Z,77335.27
2018-11-12T10:25:46.981Z,77332.26
2018-11-12T10:28:17.240Z,77329.25
2018-11-12T10:30:45.341Z,77326.25
2018-11-12T10:33:12.234Z,77327.25
2018-11-12T10:35:39.124Z,77329.25
2018-11-12T10:38:07.589Z,77328.25
2018-11-12T10:40:35.266Z,77321.25
2018-11-12T10:43:02.141Z,77325.25
2018-11-12T10:45:29.857Z,77323.25
2018-11-12T10:47:56.802Z,77320.25
2018-11-12T10:50:23.721Z,77317.24
2018-11-12T10:52:50.678Z,77319.25
2018-11-12T10:55:19.042Z,77322.25
2018-11-12T10:57:47.129Z,77324.25
2018-11-12T11:00:28.107Z,77320.25
2018-11-12T11:03:02.092Z,77314.24
2018-11-12T11:05:28.943Z,77319.25
2018-11-12T11:07:55.846Z,77313.23
2018-11-12T11:10:24.960Z,77309.23
2018-11-12T11:12:51.988Z,77313.23
2018-11-12T11:15:18.938Z,77305.23
2018-11-12T11:17:46.171Z,77300.23
2018-11-12T11:20:14.234Z,77300.23
2018-11-12T11:22:41.099Z,77289.22
2018-11-12T11:25:08.061Z,77280.20
2018-11-12T11:27:34.997Z,77275.20
2018-11-12T11:30:01.980Z,77277.20
2018-11-12T11:32:28.850Z,77274.20
2018-11-12T11:34:55.706Z,77276.20
2018-11-12T11:37:22.864Z,77272.20
2018-11-12T11:39:49.726Z,77269.20
2018-11-12T11:42:16.531Z,77269.20
2018-11-12T11:44:45.334Z,77267.20
2018-11-12T11:47:12.421Z,77267.20
2018-11-12T11:49:39.305Z,77264.19
2018-11-12T11:52:07.010Z,77264.19
2018-11-12T11:54:34.783Z,77262.19
2018-11-12T11:57:02.557Z,77261.19
2018-11-12T11:59:30.427Z,77259.19
2018-11-12T12:01:58.268Z,77259.19
2018-11-12T12:04:26.061Z,77256.19
2018-11-12T12:06:52.927Z,77256.19
2018-11-12T12:09:20.754Z,77255.19
2018-11-12T12:11:48.664Z,77250.18
2018-11-12T12:14:15.508Z,77249.18
2018-11-12T12:16:43.967Z,77246.17
2018-11-12T12:19:11.833Z,77244.17
2018-11-12T12:21:39.209Z,77243.17
2018-11-12T12:24:06.030Z,77241.17
2018-11-12T12:26:33.720Z,77237.17
2018-11-12T12:29:01.430Z,77240.17
2018-11-12T12:31:29.212Z,77239.17
2018-11-12T12:33:57.111Z,77235.17
2018-11-12T12:36:24.933Z,77239.17
2018-11-12T12:38:52.745Z,77236.17
2018-11-12T12:41:20.605Z,77225.16
2018-11-12T12:43:48.400Z,77227.16
2018-11-12T12:46:16.064Z,77221.16
2018-11-12T12:48:44.346Z,77226.16
2018-11-12T12:51:12.260Z,77226.16
2018-11-12T12:53:40.003Z,77233.16
2018-11-12T12:56:07.886Z,77241.17
2018-11-12T12:58:35.733Z,77241.17
2018-11-12T13:01:02.576Z,77241.17
2018-11-12T13:03:29.440Z,77229.16
2018-11-12T13:05:56.275Z,77223.16
2018-11-12T13:08:23.145Z,77225.16
2018-11-12T13:10:50.006Z,77217.16
2018-11-12T13:13:16.907Z,77215.15
2018-11-12T13:15:44.721Z,77217.16
2018-11-12T13:18:12.414Z,77218.16
2018-11-12T13:20:39.288Z,77214.15
2018-11-12T13:23:06.226Z,77214.15
2018-11-12T13:25:33.036Z,77213.15
2018-11-12T13:27:59.885Z,77213.15
2018-11-12T13:30:26.743Z,77216.15
2018-11-12T13:32:53.563Z,77216.15
2018-11-12T13:35:22.710Z,77216.15
2018-11-12T13:37:50.507Z,77216.15
2018-11-12T13:40:20.560Z,77220.16
2018-11-12T13:42:49.835Z,77217.16
2018-11-12T13:45:18.007Z,77213.15
2018-11-12T13:47:46.310Z,77214.15
2018-11-12T13:50:14.412Z,77213.15
2018-11-12T13:52:42.180Z,77211.14
2018-11-12T13:55:11.239Z,77205.14
2018-11-12T13:57:39.217Z,77199.14
2018-11-12T14:00:08.953Z,77203.14
2018-11-12T14:02:36.897Z,77201.14
2018-11-12T14:05:05.405Z,77204.14
2018-11-12T14:07:32.352Z,77210.14
2018-11-12T14:10:00.274Z,77214.15
2018-11-12T14:12:28.113Z,77213.15
2018-11-12T14:14:55.868Z,77211.14
2018-11-12T14:17:23.661Z,77207.14
2018-11-12T14:19:51.452Z,77212.15
2018-11-12T14:22:19.250Z,77211.14
2018-11-12T14:24:46.107Z,77211.14
2018-11-12T14:27:14.326Z,77219.16
2018-11-12T14:29:42.005Z,77219.16
2018-11-12T14:32:09.687Z,77221.16
2018-11-12T14:34:37.467Z,77219.16
2018-11-12T14:37:05.366Z,77221.16
2018-11-12T14:39:33.636Z,77222.16
2018-11-12T14:42:01.023Z,77223.16
2018-11-12T14:44:29.009Z,77217.16
2018-11-12T14:46:56.787Z,77218.16
2018-11-12T14:49:24.592Z,77221.16
2018-11-12T14:51:51.454Z,77219.16
2018-11-12T14:54:19.386Z,77220.16
2018-11-12T14:56:46.249Z,77217.16
2018-11-12T14:59:14.057Z,77217.16
2018-11-12T15:01:41.094Z,77220.16
2018-11-12T15:04:08.840Z,77218.16
2018-11-12T15:06:35.726Z,77215.15
2018-11-12T15:09:05.850Z,77221.16
2018-11-12T15:11:33.656Z,77216.15
2018-11-12T15:14:01.527Z,77218.16
2018-11-12T15:16:28.399Z,77223.16
2018-11-12T15:18:56.286Z,77219.16
2018-11-12T15:21:24.058Z,77221.16
2018-11-12T15:23:52.166Z,77217.16
2018-11-12T15:26:19.968Z,77221.16
2018-11-12T15:28:47.883Z,77221.16
2018-11-12T15:31:16.129Z,77223.16
2018-11-12T15:33:43.987Z,77227.16
2018-11-12T15:36:11.880Z,77237.17
2018-11-12T15:38:39.727Z,77232.16
2018-11-12T15:41:07.472Z,77231.16
2018-11-12T15:43:35.325Z,77230.16
2018-11-12T15:46:03.127Z,77227.16
2018-11-12T15:48:30.938Z,77234.16
2018-11-12T15:50:58.899Z,77228.16
2018-11-12T15:53:26.680Z,77231.16
2018-11-12T15:55:54.416Z,77232.16
2018-11-12T15:58:22.194Z,77231.16
2018-11-12T16:00:49.093Z,77231.16
2018-11-12T16:03:15.926Z,77236.17
2018-11-12T16:05:43.568Z,77236.17
2018-11-12T16:08:11.455Z,77234.16
2018-11-12T16:10:38.422Z,77242.17
2018-11-12T16:13:06.260Z,77240.17
2018-11-12T16:15:33.151Z,77239.17
2018-11-12T16:18:00.840Z,77231.16
2018-11-12T16:20:28.807Z,77228.16
2018-11-12T16:22:57.508Z,77237.17
2018-11-12T16:25:24.793Z,77225.16
2018-11-12T16:27:51.674Z,77227.16
2018-11-12T16:30:18.538Z,77238.17
2018-11-12T16:32:46.125Z,77245.17
2018-11-12T16:35:14.364Z,77248.18
2018-11-12T16:37:41.653Z,77247.17
2018-11-12T16:40:08.629Z,77244.17
2018-11-12T16:42:35.521Z,77247.17
2018-11-12T16:45:02.482Z,77250.18
2018-11-12T16:47:29.352Z,77243.17
2018-11-12T16:49:56.529Z,77249.18
2018-11-12T16:52:23.440Z,77246.17
2018-11-12T16:54:50.345Z,77247.17
2018-11-12T16:57:17.160Z,77253.19
2018-11-12T16:59:45.140Z,77261.19
2018-11-12T17:02:13.511Z,77258.19
2018-11-12T17:04:41.286Z,77261.19
2018-11-12T17:07:08.980Z,77266.20
2018-11-12T17:09:36.806Z,77268.20
2018-11-12T17:12:04.556Z,77272.20
2018-11-12T17:14:32.397Z,77275.20
2018-11-12T17:16:59.280Z,77272.20
2018-11-12T17:19:26.941Z,77278.20
2018-11-12T17:21:54.090Z,77277.20
2018-11-12T17:24:22.033Z,77271.20
2018-11-12T17:26:48.900Z,77268.20
2018-11-12T17:29:16.751Z,77265.20
2018-11-12T17:31:45.736Z,77266.20
2018-11-12T17:34:12.624Z,77267.20
2018-11-12T17:36:40.467Z,77269.20
2018-11-12T17:39:08.793Z,77269.20
2018-11-12T17:41:37.252Z,77264.19
2018-11-12T17:44:05.353Z,77259.19
2018-11-12T17:46:33.132Z,77261.19
2018-11-12T17:49:00.834Z,77259.19
2018-11-12T17:51:27.748Z,77262.19
2018-11-12T17:53:55.550Z,77264.19
2018-11-12T17:56:23.440Z,77268.20
2018-11-12T17:58:51.259Z,77271.20
2018-11-12T18:01:18.142Z,77269.20
2018-11-12T18:03:46.116Z,77278.20
2018-11-12T18:06:14.741Z,77268.20
2018-11-12T18:08:41.780Z,77272.20
2018-11-12T18:11:09.542Z,77269.20
2018-11-12T18:13:36.443Z,77270.20
2018-11-12T18:16:04.252Z,77274.20
2018-11-12T18:18:32.106Z,77271.20
2018-11-12T18:20:59.879Z,77267.20
2018-11-12T18:23:27.661Z,77266.20
2018-11-12T18:25:54.482Z,77270.20
2018-11-12T18:28:22.283Z,77269.20
2018-11-12T18:30:49.464Z,77272.20
2018-11-12T18:33:16.038Z,77270.20
2018-11-12T18:35:42.801Z,77275.20
2018-11-12T18:38:09.738Z,77276.20
2018-11-12T18:40:36.563Z,77270.20
2018-11-12T18:43:03.414Z,77269.20
2018-11-12T18:45:30.404Z,77260.19
2018-11-12T18:47:58.109Z,77267.20
2018-11-12T18:50:26.282Z,77268.20
2018-11-12T18:52:53.152Z,77270.20
2018-11-12T18:55:20.932Z,77274.20
2018-11-12T18:57:49.184Z,77273.20
2018-11-12T19:00:18.637Z,77273.20
2018-11-12T19:02:46.697Z,77276.20
2018-11-12T19:05:16.295Z,77286.21
2018-11-12T19:07:44.354Z,77281.20
2018-11-12T19:10:14.262Z,77284.21
2018-11-12T19:12:42.732Z,77287.22
2018-11-12T19:15:12.416Z,77286.21
2018-11-12T19:17:39.306Z,77289.22
2018-11-12T19:20:06.989Z,77300.23
2018-11-12T19:22:34.919Z,77300.23
2018-11-12T19:25:02.798Z,77293.22
2018-11-12T19:27:30.775Z,77296.22
2018-11-12T19:29:58.900Z,77296.22
2018-11-12T19:32:27.025Z,77293.22
2018-11-12T19:34:53.860Z,77288.22
2018-11-12T19:37:21.720Z,77291.22
2018-11-12T19:39:49.648Z,77295.22
2018-11-12T19:42:17.462Z,77300.23
2018-11-12T19:44:45.609Z,77298.23
2018-11-12T19:47:14.117Z,77299.23
2018-11-12T19:49:41.933Z,77302.23
2018-11-12T19:52:08.782Z,77299.23
2018-11-12T19:54:36.607Z,77310.23
2018-11-12T19:57:04.732Z,77306.23
2018-11-12T19:59:32.445Z,77307.23
2018-11-12T20:02:00.559Z,77307.23
2018-11-12T20:04:28.300Z,77310.23
2018-11-12T20:06:56.100Z,77313.23
2018-11-12T20:09:23.928Z,77313.23
2018-11-12T20:11:50.828Z,77315.24
2018-11-12T20:14:17.716Z,77321.25
2018-11-12T20:16:46.443Z,77319.25
2018-11-12T20:19:14.082Z,77321.25
2018-11-12T20:21:40.943Z,77321.25
2018-11-12T20:24:08.768Z,77315.24
2018-11-12T20:26:36.409Z,77313.23
2018-11-12T20:29:04.285Z,77319.25
2018-11-12T20:31:32.205Z,77322.25
2018-11-12T20:34:00.028Z,77323.25
2018-11-12T20:36:28.176Z,77317.24
2018-11-12T20:38:56.056Z,77325.25
2018-11-12T20:41:23.960Z,77325.25
2018-11-12T20:43:50.945Z,77319.25
2018-11-12T20:46:18.687Z,77316.24
2018-11-12T20:48:46.546Z,77319.25
2018-11-12T20:51:15.231Z,77315.24
2018-11-12T20:53:42.186Z,77314.24
2018-11-12T20:56:10.059Z,77316.24
2018-11-12T20:58:37.827Z,77322.25
2018-11-12T21:01:05.543Z,77322.25
2018-11-12T21:03:32.623Z,77317.24
2018-11-12T21:06:00.535Z,77316.24
2018-11-12T21:08:28.355Z,77327.25
2018-11-12T21:10:56.112Z,77323.25
2018-11-12T21:13:23.877Z,77322.25
2018-11-12T21:15:50.711Z,77327.25
2018-11-12T21:18:18.516Z,77324.25
2018-11-12T21:20:46.871Z,77330.25
2018-11-12T21:23:14.808Z,77332.26
2018-11-12T21:25:42.629Z,77326.25
2018-11-12T21:28:09.508Z,77326.25
2018-11-12T21:30:36.359Z,77326.25
2018-11-12T21:33:03.254Z,77324.25
2018-11-12T21:35:31.208Z,77326.25
2018-11-12T21:37:58.081Z,77323.25
2018-11-12T21:40:27.055Z,77329.25
2018-11-12T21:42:54.022Z,77321.25
2018-11-12T21:45:22.359Z,77328.25
2018-11-12T21:47:49.214Z,77327.25
2018-11-12T21:50:18.037Z,77332.26
2018-11-12T21:52:44.893Z,77329.25
2018-11-12T21:55:14.095Z,77343.27
2018-11-12T21:57:41.326Z,77329.25
2018-11-12T22:00:12.099Z,77341.27
2018-11-12T22:02:39.899Z,77341.27
2018-11-12T22:05:06.747Z,77338.27
2018-11-12T22:07:34.444Z,77336.27
2018-11-12T22:10:02.179Z,77327.25
2018-11-12T22:12:29.972Z,77323.25
2018-11-12T22:14:56.834Z,77328.25
2018-11-12T22:17:24.448Z,77323.25
2018-11-12T22:19:52.179Z,77327.25
2018-11-12T22:22:19.037Z,77327.25
2018-11-12T22:24:45.905Z,77321.25
2018-11-12T22:27:14.467Z,77329.25
2018-11-12T22:29:41.334Z,77328.25
2018-11-12T22:32:09.409Z,77321.25
2018-11-12T22:34:37.114Z,77323.25
2018-11-12T22:37:03.954Z,77320.25
2018-11-12T22:39:30.801Z,77317.24
2018-11-12T22:41:58.503Z,77317.24
2018-11-12T22:44:25.288Z,77324.25
2018-11-12T22:46:53.095Z,77319.25
2018-11-12T22:49:19.958Z,77323.25
2018-11-12T22:51:46.823Z,77319.25
2018-11-12T22:54:15.609Z,77320.25
2018-11-12T22:56:42.519Z,77325.25
2018-11-12T22:59:09.387Z,77326.25
2018-11-12T23:01:36.335Z,77327.25
2018-11-12T23:04:03.179Z,77329.25
2018-11-12T23:06:30.052Z,77334.26
2018-11-12T23:08:57.865Z,77339.27
2018-11-12T23:11:24.698Z,77341.27
2018-11-12T23:13:51.572Z,77341.27
2018-11-12T23:16:18.453Z,77348.27
2018-11-12T23:18:45.281Z,77343.27
2018-11-12T23:21:12.166Z,77342.27
2018-11-12T23:23:38.999Z,77339.27
2018-11-12T23:26:05.835Z,77341.27
2018-11-12T23:28:32.740Z,77335.27
2018-11-12T23:30:59.582Z,77341.27
2018-11-12T23:33:26.385Z,77348.27
2018-11-12T23:35:53.247Z,77347.27
2018-11-12T23:38:20.117Z,77345.27
2018-11-12T23:40:46.986Z,77343.27
2018-11-12T23:43:14.701Z,77345.27
2018-11-12T23:45:41.557Z,77353.28
2018-11-12T23:48:09.309Z,77351.27
2018-11-12T23:50:36.163Z,77345.27
2018-11-12T23:53:03.014Z,77350.27
2018-11-12T23:55:29.843Z,77346.27
2018-11-12T23:57:56.711Z,77351.27
